Time;durP1;ratioP1;P1;durP2;ratioP2;P2;SDS_P1;SDS_P2;PMS_P1;PMS_P2;Temp;Humidity;BMP_temperature;BMP_pressure;BME280_temperature;BME280_humidity;BME280_pressure;Samples;Min_cycle;Max_cycle;Signal;HPM_P1;HPM_P2
2022/10/04 00:01:50;;;;;;;4.75;2.95;;;11.60;99.90;;;;;;5007618;28;20092;-89
2022/10/04 00:04:19;;;;;;;5.38;3.05;;;11.60;99.90;;;;;;5009025;28;20001;-89
2022/10/04 00:06:54;;;;;;;9.00;3.80;;;11.60;99.90;;;;;;5032484;28;20127;-88
2022/10/04 00:09:25;;;;;;;4.57;3.25;;;11.60;99.90;;;;;;5003559;28;20022;-90
2022/10/04 00:11:54;;;;;;;3.70;2.80;;;11.50;99.90;;;;;;5008109;28;20059;-88
2022/10/04 00:14:41;;;;;;;3.53;2.50;;;11.50;99.90;;;;;;5033765;28;20081;-89
2022/10/04 00:17:20;;;;;;;8.02;3.65;;;11.40;99.90;;;;;;4997798;28;20029;-89
2022/10/04 00:19:48;;;;;;;6.13;3.97;;;11.40;99.90;;;;;;5027391;28;20066;-88
2022/10/04 00:22:24;;;;;;;3.60;3.22;;;11.50;99.90;;;;;;4999208;28;20026;-89
2022/10/04 00:25:07;;;;;;;4.10;3.45;;;11.50;99.90;;;;;;5014210;28;20041;-89
2022/10/04 00:27:35;;;;;;;4.85;3.45;;;11.50;99.90;;;;;;5018806;28;20028;-89
2022/10/04 00:30:01;;;;;;;4.40;3.60;;;11.50;99.90;;;;;;5026300;28;20032;-87
2022/10/04 00:32:31;;;;;;;8.77;4.57;;;11.60;99.90;;;;;;5033063;28;20030;-88
2022/10/04 00:34:59;;;;;;;5.57;3.65;;;11.60;99.90;;;;;;5002302;28;20028;-90
2022/10/04 00:37:26;;;;;;;6.50;4.35;;;11.60;99.90;;;;;;5031566;28;20022;-89
2022/10/04 00:40:16;;;;;;;5.80;3.17;;;11.60;99.90;;;;;;4999776;28;20390;-87
2022/10/04 00:43:05;;;;;;;6.85;3.80;;;11.60;99.90;;;;;;5012023;28;20053;-87
2022/10/04 00:45:48;;;;;;;7.20;3.85;;;11.60;99.90;;;;;;5018825;28;20489;-87
2022/10/04 00:48:23;;;;;;;9.70;4.90;;;11.60;99.90;;;;;;5020154;28;20029;-88
2022/10/04 00:50:58;;;;;;;11.43;4.72;;;11.60;99.90;;;;;;5020103;28;20022;-88
2022/10/04 00:53:53;;;;;;;7.50;3.53;;;11.60;99.90;;;;;;5018649;28;20044;-89
2022/10/04 00:56:50;;;;;;;5.22;3.90;;;11.50;99.90;;;;;;5015509;28;20032;-88
2022/10/04 00:59:33;;;;;;;5.28;4.18;;;11.60;99.90;;;;;;5038110;28;20028;-87
2022/10/04 01:02:25;;;;;;;8.20;4.53;;;11.50;99.90;;;;;;5016395;28;20034;-87
2022/10/04 01:05:15;;;;;;;4.57;3.92;;;11.50;99.90;;;;;;4989196;28;20026;-86
2022/10/04 01:07:47;;;;;;;7.50;4.70;;;11.50;99.90;;;;;;5019316;28;20026;-88
2022/10/04 01:10:19;;;;;;;7.85;4.40;;;11.50;99.90;;;;;;5028971;28;20046;-86
2022/10/04 01:12:49;;;;;;;7.18;4.70;;;11.50;99.90;;;;;;5031614;28;20033;-88
2022/10/04 01:15:29;;;;;;;5.45;4.03;;;11.50;99.80;;;;;;5016753;28;20053;-89
2022/10/04 01:18:05;;;;;;;5.45;4.30;;;11.50;99.90;;;;;;4998818;28;20508;-90
2022/10/04 01:20:48;;;;;;;6.18;5.18;;;11.40;99.90;;;;;;5016831;28;20514;-87
2022/10/04 01:23:50;;;;;;;11.15;5.53;;;11.40;99.90;;;;;;5017142;28;20383;-90
2022/10/04 01:26:28;;;;;;;5.82;4.22;;;11.40;99.90;;;;;;4983818;28;20129;-88
2022/10/04 01:29:00;;;;;;;4.90;4.40;;;11.30;99.90;;;;;;5025319;28;20064;-88
2022/10/04 01:31:32;;;;;;;6.13;4.53;;;11.30;99.90;;;;;;5038993;28;20025;-87
2022/10/04 01:33:59;;;;;;;11.50;5.00;;;11.30;99.90;;;;;;5058531;28;20032;-87
2022/10/04 01:36:26;;;;;;;;;;;11.30;99.90;;;;;;5037386;28;20113;-88
2022/10/04 01:38:53;;;;;;;5.88;4.43;;;11.20;99.90;;;;;;5011309;28;19905;-88
2022/10/04 01:41:37;;;;;;;6.45;3.80;;;11.10;99.90;;;;;;4997641;28;20046;-88
2022/10/04 01:44:08;;;;;;;5.75;3.75;;;11.10;99.90;;;;;;4987295;28;20088;-88
2022/10/04 01:46:36;;;;;;;6.68;4.45;;;11.10;99.90;;;;;;5031699;28;20494;-89
2022/10/04 01:49:10;;;;;;;11.60;4.63;;;11.00;99.90;;;;;;5039149;28;20029;-87
2022/10/04 01:51:48;;;;;;;9.23;4.45;;;11.00;99.90;;;;;;5055692;28;20077;-86
2022/10/04 01:54:22;;;;;;;6.70;4.70;;;11.10;99.90;;;;;;5037652;28;20062;-83
2022/10/04 01:56:56;;;;;;;7.07;4.90;;;11.10;99.90;;;;;;5034185;28;20024;-87
2022/10/04 01:59:29;;;;;;;5.13;3.80;;;11.10;99.90;;;;;;5012115;28;20029;-86
2022/10/04 02:02:07;;;;;;;6.20;4.32;;;11.10;99.90;;;;;;5029811;28;20060;-87
2022/10/04 02:04:38;;;;;;;6.10;4.03;;;11.00;99.90;;;;;;5043124;28;20010;-87
2022/10/04 02:07:12;;;;;;;6.60;4.43;;;11.00;99.90;;;;;;5045162;28;20032;-88
2022/10/04 02:09:42;;;;;;;8.88;4.30;;;11.00;99.90;;;;;;5051337;28;20005;-86
2022/10/04 02:12:09;;;;;;;5.53;4.53;;;11.00;99.90;;;;;;5020950;28;20026;-89
2022/10/04 02:14:38;;;;;;;6.73;3.70;;;11.00;99.90;;;;;;5013223;28;20030;-87
2022/10/04 02:17:10;;;;;;;8.52;4.88;;;10.90;99.90;;;;;;5008199;28;20363;-89
2022/10/04 02:19:39;;;;;;;6.20;4.10;;;10.90;99.90;;;;;;5040559;28;20037;-87
2022/10/04 02:22:08;;;;;;;9.85;4.10;;;10.90;99.90;;;;;;5046250;28;20449;-87
2022/10/04 02:24:37;;;;;;;5.25;3.75;;;11.00;99.90;;;;;;5033758;28;20472;-86
2022/10/04 02:27:05;;;;;;;4.75;3.35;;;11.00;99.90;;;;;;5034078;28;20487;-86
2022/10/04 02:29:31;;;;;;;4.38;3.92;;;11.00;99.90;;;;;;5034991;28;20049;-86
2022/10/04 02:34:44;;;;;;;5.80;3.67;;;10.80;99.90;;;;;;5018160;28;20092;-86
2022/10/04 02:37:11;;;;;;;8.15;4.18;;;10.70;99.90;;;;;;5014484;28;20022;-89
2022/10/04 02:39:45;;;;;;;4.32;3.92;;;10.70;99.90;;;;;;5021000;28;20010;-84
2022/10/04 02:42:38;;;;;;;5.65;3.35;;;10.60;99.90;;;;;;4988710;28;20038;-86
2022/10/04 02:45:20;;;;;;;5.97;4.93;;;10.60;99.90;;;;;;5040122;28;20104;-88
2022/10/04 02:48:12;;;;;;;5.88;3.90;;;10.50;99.90;;;;;;5025805;28;20360;-90
2022/10/04 02:50:48;;;;;;;7.50;4.78;;;10.50;99.90;;;;;;5032771;28;20056;-89
2022/10/04 02:53:25;;;;;;;8.98;4.85;;;10.50;99.90;;;;;;5036966;28;20022;-89
2022/10/04 02:55:52;;;;;;;;;;;10.50;99.90;;;;;;5003057;28;20103;-89
2022/10/04 02:58:22;;;;;;;6.00;4.68;;;10.50;99.90;;;;;;5016962;28;19921;-89
2022/10/04 03:00:51;;;;;;;11.77;6.13;;;10.50;99.90;;;;;;5001487;28;20045;-87
2022/10/04 03:03:28;;;;;;;7.85;4.63;;;10.50;99.90;;;;;;5030577;28;20079;-89
2022/10/04 03:06:02;;;;;;;6.65;4.85;;;10.50;99.90;;;;;;4992267;28;20053;-90
2022/10/04 03:08:33;;;;;;;9.80;4.75;;;10.50;99.90;;;;;;5014107;28;20036;-88
2022/10/04 03:11:01;;;;;;;9.10;4.85;;;10.40;99.90;;;;;;5016746;28;20021;-89
2022/10/04 03:13:27;;;;;;;5.60;4.43;;;10.40;99.90;;;;;;5036008;28;20056;-88
2022/10/04 03:15:53;;;;;;;7.15;4.57;;;10.30;99.90;;;;;;5036331;28;20087;-89
2022/10/04 03:18:21;;;;;;;7.47;4.80;;;10.40;99.90;;;;;;5023001;28;20045;-88
2022/10/04 03:20:47;;;;;;;5.60;4.68;;;10.40;99.90;;;;;;5036078;28;20033;-89
2022/10/04 03:23:16;;;;;;;10.18;4.53;;;10.50;99.90;;;;;;5016541;28;20029;-89
2022/10/04 03:25:51;;;;;;;8.15;4.45;;;10.40;99.90;;;;;;5017769;28;20033;-88
2022/10/04 03:28:18;;;;;;;4.50;4.05;;;10.40;99.90;;;;;;5020544;28;20021;-89
2022/10/04 03:30:46;;;;;;;6.80;5.25;;;10.30;99.90;;;;;;5019676;28;20022;-88
2022/10/04 03:33:18;;;;;;;5.53;4.10;;;10.30;99.90;;;;;;5024967;28;20394;-87
2022/10/04 03:35:47;;;;;;;9.65;5.25;;;10.30;99.90;;;;;;5056160;28;20032;-88
2022/10/04 03:38:16;;;;;;;7.68;4.95;;;10.30;99.90;;;;;;5025548;28;20041;-85
2022/10/04 03:40:50;;;;;;;10.60;5.53;;;10.30;99.90;;;;;;5014753;28;20041;-85
2022/10/04 03:43:16;;;;;;;7.60;4.80;;;10.30;99.90;;;;;;5030275;28;20120;-86
2022/10/04 03:45:43;;;;;;;6.32;4.43;;;10.30;99.90;;;;;;5028954;28;20067;-87
2022/10/04 03:48:14;;;;;;;8.90;5.43;;;10.20;99.90;;;;;;5056261;28;20009;-86
2022/10/04 03:50:46;;;;;;;6.93;5.55;;;10.30;99.90;;;;;;5015928;28;20030;-87
2022/10/04 03:53:38;;;;;;;10.55;5.53;;;10.30;99.90;;;;;;5031747;28;20025;-86
2022/10/04 03:56:29;;;;;;;6.57;4.65;;;10.30;99.90;;;;;;5015139;28;20021;-85
2022/10/04 03:58:57;;;;;;;6.72;5.30;;;10.30;99.90;;;;;;5048554;28;20144;-88
2022/10/04 04:01:37;;;;;;;8.38;5.57;;;10.30;99.90;;;;;;5038740;28;20087;-88
2022/10/04 04:04:30;;;;;;;7.75;5.45;;;10.30;99.90;;;;;;5024827;28;20018;-87
2022/10/04 04:07:20;;;;;;;5.85;4.05;;;10.30;99.90;;;;;;5013014;28;20142;-86
2022/10/04 04:09:56;;;;;;;7.22;5.63;;;10.30;99.90;;;;;;5030339;28;20106;-86
2022/10/04 04:12:33;;;;;;;6.13;4.85;;;10.20;99.90;;;;;;5039980;28;20066;-85
2022/10/04 04:15:00;;;;;;;8.40;5.80;;;10.30;99.90;;;;;;5032319;28;20053;-85
2022/10/04 04:17:26;;;;;;;7.78;5.47;;;10.30;99.90;;;;;;5040731;28;20026;-87
2022/10/04 04:20:00;;;;;;;11.10;5.07;;;10.30;99.90;;;;;;5023499;28;20093;-88
2022/10/04 04:22:30;;;;;;;8.07;4.82;;;10.40;99.90;;;;;;5024202;28;20030;-86
2022/10/04 04:24:59;;;;;;;5.78;4.75;;;10.50;99.90;;;;;;5015699;28;20104;-86
2022/10/04 04:27:28;;;;;;;9.18;4.85;;;10.50;99.90;;;;;;5023285;28;20124;-88
2022/10/04 04:29:57;;;;;;;9.57;5.28;;;10.60;99.90;;;;;;5003026;28;20041;-89
2022/10/04 04:32:30;;;;;;;5.93;3.70;;;10.60;99.90;;;;;;5005382;28;20037;-85
2022/10/04 04:35:09;;;;;;;7.13;5.13;;;10.70;99.90;;;;;;5023693;28;20098;-87
2022/10/04 04:37:35;;;;;;;8.65;4.88;;;10.80;99.90;;;;;;4997870;28;20026;-87
2022/10/04 04:40:23;;;;;;;6.27;5.07;;;10.80;99.90;;;;;;5015997;28;20363;-86
2022/10/04 04:42:50;;;;;;;8.57;4.60;;;10.90;99.90;;;;;;5022761;28;20049;-85
2022/10/04 04:45:21;;;;;;;5.15;4.40;;;11.00;99.90;;;;;;5017948;28;20032;-87
2022/10/04 04:47:50;;;;;;;7.65;4.53;;;11.00;99.90;;;;;;5017704;28;20022;-86
2022/10/04 04:50:19;;;;;;;7.95;4.70;;;11.00;99.90;;;;;;4997799;28;20113;-86
2022/10/04 04:52:56;;;;;;;12.43;4.57;;;11.00;99.90;;;;;;5023644;28;20029;-85
2022/10/04 04:55:43;;;;;;;7.97;4.47;;;11.00;99.90;;;;;;5016702;28;20503;-87
2022/10/04 04:58:20;;;;;;;8.38;5.00;;;11.10;99.90;;;;;;5019720;28;20133;-86
2022/10/04 05:00:54;;;;;;;7.00;4.63;;;11.10;99.90;;;;;;5014412;28;20053;-86
2022/10/04 05:03:20;;;;;;;7.18;4.07;;;11.20;99.90;;;;;;5015218;28;20018;-88
2022/10/04 05:05:46;;;;;;;10.13;6.15;;;11.40;99.90;;;;;;5032271;28;20033;-87
2022/10/04 05:08:26;;;;;;;6.45;5.20;;;11.40;99.90;;;;;;5038049;28;20025;-88
2022/10/04 05:10:59;;;;;;;6.65;4.55;;;11.40;99.90;;;;;;5037582;28;20021;-88
2022/10/04 05:13:38;;;;;;;10.80;4.20;;;11.50;99.90;;;;;;5046647;28;20053;-88
2022/10/04 05:16:13;;;;;;;10.70;5.60;;;11.50;99.90;;;;;;5000461;28;20088;-87
2022/10/04 05:18:39;;;;;;;11.15;5.78;;;11.50;99.90;;;;;;5017681;28;20021;-86
2022/10/04 05:21:16;;;;;;;7.15;4.95;;;11.40;99.90;;;;;;5004562;28;20078;-89
2022/10/04 05:23:43;;;;;;;10.90;5.63;;;11.40;99.90;;;;;;5016801;28;20020;-88
2022/10/04 05:26:11;;;;;;;7.22;4.60;;;11.50;99.90;;;;;;5011159;28;20362;-87
2022/10/04 05:28:38;;;;;;;5.30;4.65;;;11.70;99.90;;;;;;4998574;28;20453;-87
2022/10/04 05:31:07;;;;;;;10.10;4.90;;;11.70;99.90;;;;;;5013455;28;20075;-88
2022/10/04 05:33:51;;;;;;;5.18;4.00;;;11.70;99.90;;;;;;5000495;28;20479;-86
2022/10/04 05:36:35;;;;;;;11.23;5.47;;;11.70;99.90;;;;;;5014963;28;20002;-86
2022/10/04 05:39:16;;;;;;;7.50;3.97;;;11.70;99.90;;;;;;5021926;28;20032;-90
2022/10/04 05:42:06;;;;;;;7.40;4.80;;;11.80;99.90;;;;;;5019835;28;20112;-88
2022/10/04 05:47:42;;;;;;;9.80;5.15;;;11.90;99.90;;;;;;5034837;28;20048;-88
2022/10/04 05:50:19;;;;;;;7.95;4.97;;;11.90;99.90;;;;;;5025540;28;20061;-87
2022/10/04 05:52:48;;;;;;;12.88;5.70;;;12.00;99.90;;;;;;5022297;28;20027;-88
2022/10/04 05:55:26;;;;;;;6.40;4.65;;;12.00;99.90;;;;;;5003024;28;20034;-87
2022/10/04 05:58:38;;;;;;;6.65;4.93;;;11.90;99.70;;;;;;5003928;28;20049;-89
2022/10/04 06:01:29;;;;;;;11.07;5.18;;;11.90;99.70;;;;;;5038369;28;20038;-87
2022/10/04 06:04:22;;;;;;;8.23;5.25;;;11.90;99.70;;;;;;4997870;28;20037;-88
2022/10/04 06:06:59;;;;;;;9.00;4.85;;;11.90;99.80;;;;;;5021716;28;20136;-88
2022/10/04 06:09:44;;;;;;;11.27;5.40;;;11.90;99.70;;;;;;5021713;28;20026;-87
2022/10/04 06:12:39;;;;;;;10.35;5.22;;;11.90;99.50;;;;;;5029054;28;20030;-88
2022/10/04 06:15:54;;;;;;;11.25;6.00;;;11.90;99.70;;;;;;5026009;28;20136;-89
2022/10/04 06:18:36;;;;;;;5.72;4.82;;;12.00;99.50;;;;;;4927105;29;20122;-86
2022/10/04 06:21:23;;;;;;;5.82;4.38;;;12.00;99.40;;;;;;4946396;29;20159;-87
2022/10/04 06:24:01;;;;;;;8.75;4.28;;;12.10;99.40;;;;;;4936283;29;20032;-87
2022/10/04 06:26:46;;;;;;;8.13;5.22;;;12.10;99.10;;;;;;4929815;29;20039;-87
2022/10/04 06:29:17;;;;;;;7.35;4.32;;;12.00;99.00;;;;;;4927964;29;20064;-86
2022/10/04 06:32:10;;;;;;;8.70;5.22;;;12.00;98.70;;;;;;4935486;29;20060;-85
2022/10/04 06:34:57;;;;;;;11.98;5.25;;;12.00;98.90;;;;;;4917140;29;20048;-83
2022/10/04 06:37:38;;;;;;;9.50;4.82;;;11.90;98.90;;;;;;4916224;29;20024;-88
2022/10/04 06:40:31;;;;;;;9.98;5.03;;;12.00;98.80;;;;;;4908576;29;20021;-89
2022/10/04 06:43:21;;;;;;;6.00;4.25;;;12.20;98.90;;;;;;4893579;29;20111;-88
2022/10/04 06:46:36;;;;;;;8.43;5.05;;;12.30;98.40;;;;;;4902801;29;20553;-86
2022/10/04 06:49:32;;;;;;;6.18;4.35;;;12.40;98.30;;;;;;4906602;28;20038;-92
2022/10/04 06:52:09;;;;;;;6.10;4.25;;;12.50;97.60;;;;;;4995252;28;20083;-86
2022/10/04 06:54:50;;;;;;;6.00;4.32;;;12.40;97.20;;;;;;4989676;28;20038;-88
2022/10/04 06:57:38;;;;;;;10.95;5.03;;;12.40;97.60;;;;;;4991155;28;20041;-87
2022/10/04 07:00:13;;;;;;;10.82;4.18;;;12.60;97.40;;;;;;4980107;28;20037;-86
2022/10/04 07:03:11;;;;;;;7.75;4.80;;;12.80;97.00;;;;;;4998261;28;20045;-84
2022/10/04 07:06:10;;;;;;;5.07;3.80;;;12.90;96.70;;;;;;4995749;28;20034;-85
2022/10/04 07:08:46;;;;;;;5.43;3.92;;;13.00;95.40;;;;;;5009787;28;20040;-87
2022/10/04 07:11:41;;;;;;;10.75;4.15;;;12.90;95.30;;;;;;5042861;28;20021;-87
2022/10/04 07:14:30;;;;;;;7.43;4.43;;;12.90;95.30;;;;;;5046077;28;20109;-88
2022/10/04 07:17:02;;;;;;;9.85;4.53;;;13.00;95.10;;;;;;4998640;28;20075;-88
2022/10/04 07:19:33;;;;;;;7.68;4.20;;;13.00;94.80;;;;;;5017336;28;20125;-88
2022/10/04 07:22:14;;;;;;;7.00;4.32;;;13.10;94.60;;;;;;5041864;28;20030;-89
2022/10/04 07:24:57;;;;;;;9.93;3.60;;;13.30;94.50;;;;;;5043223;28;20344;-87
2022/10/04 07:29:19;;;;;;;6.32;3.35;;;13.40;93.50;;;;;;5038934;28;20015;-88
2022/10/04 07:30:40;;;;;;;8.73;4.82;;;13.30;93.30;;;;;;5035101;28;20280;-89
2022/10/04 07:33:13;;;;;;;7.10;4.00;;;13.40;93.80;;;;;;5049454;28;20022;-87
2022/10/04 07:35:46;;;;;;;6.35;4.22;;;13.50;92.80;;;;;;5024148;28;20022;-87
2022/10/04 07:38:19;;;;;;;5.00;3.55;;;13.50;93.10;;;;;;5028603;28;20036;-87
2022/10/04 07:41:24;;;;;;;4.57;3.17;;;13.40;92.30;;;;;;5035945;28;20049;-87
2022/10/04 07:44:02;;;;;;;4.63;4.22;;;13.20;92.00;;;;;;5018020;28;20061;-88
2022/10/04 07:46:56;;;;;;;6.45;3.90;;;13.20;92.20;;;;;;5044442;28;20018;-86
2022/10/04 07:49:24;;;;;;;6.55;4.03;;;13.50;91.90;;;;;;5010400;28;20383;-86
2022/10/04 07:52:06;;;;;;;4.85;2.72;;;14.00;91.80;;;;;;5029707;28;20109;-90
2022/10/04 07:54:53;;;;;;;8.63;3.85;;;14.80;90.20;;;;;;5054146;28;20022;-86
2022/10/04 07:57:19;;;;;;;;;;;17.10;88.80;;;;;;5027091;28;20014;-88
2022/10/04 08:00:06;;;;;;;8.15;3.80;;;17.50;87.70;;;;;;5036847;28;19909;-87
2022/10/04 08:03:00;;;;;;;7.10;3.42;;;18.50;79.30;;;;;;5012344;28;20141;-88
2022/10/04 08:05:40;;;;;;;6.25;3.47;;;20.00;72.70;;;;;;5008356;28;20109;-88
2022/10/04 08:08:25;;;;;;;7.15;3.17;;;21.10;68.60;;;;;;5021214;28;20558;-88
2022/10/04 08:11:23;;;;;;;8.95;3.33;;;20.60;65.80;;;;;;5008948;28;20494;-88
2022/10/04 08:14:14;;;;;;;7.28;3.22;;;19.90;65.20;;;;;;5023904;28;20029;-88
2022/10/04 08:17:10;;;;;;;6.68;2.90;;;20.30;65.00;;;;;;5009703;28;20025;-87
2022/10/04 08:20:19;;;;;;;3.75;2.63;;;20.40;63.90;;;;;;5018906;28;20026;-87
2022/10/04 08:23:16;;;;;;;8.02;2.95;;;20.60;61.60;;;;;;4993468;28;20050;-86
2022/10/04 08:25:56;;;;;;;9.20;3.17;;;20.10;62.50;;;;;;5034694;28;20079;-88
2022/10/04 08:31:54;;;;;;;3.85;3.10;;;18.40;63.50;;;;;;5024048;28;20045;-87
2022/10/04 08:34:58;;;;;;;4.88;2.78;;;17.00;67.70;;;;;;5026639;28;20028;-87
2022/10/04 08:37:32;;;;;;;4.50;3.13;;;16.30;70.40;;;;;;5024758;28;20025;-85
2022/10/04 08:40:07;;;;;;;4.32;2.60;;;15.50;73.00;;;;;;5025455;28;20072;-88
2022/10/04 08:42:45;;;;;;;5.07;3.38;;;15.20;74.80;;;;;;5009526;28;20034;-86
2022/10/04 08:45:37;;;;;;;3.30;2.92;;;14.80;76.10;;;;;;5018658;28;20168;-87
2022/10/04 08:48:45;;;;;;;4.05;2.70;;;14.60;77.40;;;;;;4984676;28;20049;-87
2022/10/04 08:51:29;;;;;;;4.95;3.58;;;14.40;77.80;;;;;;5027335;28;20032;-86
2022/10/04 08:54:07;;;;;;;5.57;3.17;;;14.30;78.90;;;;;;5014196;28;20563;-86
2022/10/04 08:57:09;;;;;;;17.67;4.38;;;14.30;79.40;;;;;;4998053;28;20090;-84
2022/10/04 09:00:03;;;;;;;8.15;3.17;;;14.50;79.50;;;;;;5004450;28;20038;-87
2022/10/04 09:02:45;;;;;;;8.95;3.95;;;14.50;78.80;;;;;;4974820;28;20039;-87
2022/10/04 09:05:31;;;;;;;5.18;2.63;;;14.50;79.40;;;;;;5012202;28;20101;-90
2022/10/04 09:08:09;;;;;;;10.48;4.35;;;14.70;78.60;;;;;;5003698;28;20029;-88
2022/10/04 09:10:43;;;;;;;2.78;2.47;;;14.80;79.00;;;;;;5017593;28;20036;-89
2022/10/04 09:13:46;;;;;;;7.95;4.28;;;14.80;78.10;;;;;;5019774;28;20018;-87
2022/10/04 09:16:24;;;;;;;5.18;3.08;;;15.00;78.60;;;;;;4991925;28;20035;-89
2022/10/04 09:19:16;;;;;;;5.55;3.53;;;15.40;77.60;;;;;;5002696;28;20031;-90
2022/10/04 09:21:45;;;;;;;3.80;2.30;;;15.50;77.00;;;;;;4979655;28;20076;-89
2022/10/04 09:24:33;;;;;;;10.02;3.25;;;15.70;75.10;;;;;;5003498;28;20030;-89
2022/10/04 09:27:14;;;;;;;4.10;3.60;;;16.00;75.50;;;;;;5000366;28;20089;-87
2022/10/04 09:30:18;;;;;;;5.13;3.33;;;17.00;72.30;;;;;;5003206;28;20046;-87
2022/10/04 09:32:59;;;;;;;4.10;3.00;;;18.10;70.90;;;;;;5019730;28;20427;-86
2022/10/04 09:35:56;;;;;;;3.10;2.60;;;19.80;66.60;;;;;;4990637;28;20026;-86
2022/10/04 09:38:34;;;;;;;9.43;3.20;;;20.40;61.70;;;;;;5004325;28;20034;-87
2022/10/04 09:41:25;;;;;;;4.85;1.98;;;20.40;60.00;;;;;;4999933;28;20086;-88
2022/10/04 09:44:49;;;;;;;5.00;2.50;;;19.50;59.90;;;;;;4977293;28;20045;-90
2022/10/04 09:47:42;;;;;;;4.53;2.55;;;18.30;63.60;;;;;;4964957;29;20035;-88
2022/10/04 09:50:34;;;;;;;4.90;2.75;;;17.40;65.30;;;;;;4964047;29;20046;-88
2022/10/04 09:53:43;;;;;;;8.88;3.22;;;16.80;67.50;;;;;;4970781;28;20045;-85
2022/10/04 09:56:27;;;;;;;7.78;3.13;;;16.30;68.80;;;;;;4952441;28;20047;-87
2022/10/04 10:00:01;;;;;;;4.47;2.88;;;16.10;69.80;;;;;;4956869;29;20067;-88
2022/10/04 10:02:57;;;;;;;2.55;2.10;;;15.70;70.90;;;;;;4914221;29;20045;-86
2022/10/04 10:05:48;;;;;;;4.70;2.80;;;15.50;71.00;;;;;;4874485;29;20041;-89
2022/10/04 10:08:35;;;;;;;6.07;2.70;;;15.20;72.70;;;;;;4903364;29;20012;-87
2022/10/04 10:14:26;;;;;;;6.22;2.22;;;15.10;73.80;;;;;;4902601;29;20545;-89
2022/10/04 10:17:26;;;;;;;8.95;3.08;;;15.20;74.50;;;;;;4893019;29;20111;-89
2022/10/04 10:20:25;;;;;;;6.22;2.53;;;14.80;77.50;;;;;;4957287;29;20567;-89
2022/10/04 10:23:10;;;;;;;9.82;3.72;;;14.50;79.40;;;;;;4959333;28;20077;-87
2022/10/04 10:26:15;;;;;;;4.60;2.60;;;14.50;79.90;;;;;;4955494;29;20039;-89
2022/10/04 10:28:51;;;;;;;5.30;2.40;;;14.60;78.50;;;;;;4949171;29;20031;-87
2022/10/04 10:31:50;;;;;;;5.07;2.88;;;14.70;78.10;;;;;;4974166;28;20054;-89
2022/10/04 10:34:24;;;;;;;4.72;2.88;;;14.70;77.80;;;;;;4967971;28;20035;-89
2022/10/04 10:36:57;;;;;;;3.58;2.65;;;14.70;78.30;;;;;;4977515;28;20065;-88
2022/10/04 10:39:55;;;;;;;5.60;2.90;;;14.50;81.30;;;;;;4995149;28;20038;-89
2022/10/04 10:42:48;;;;;;;5.50;3.15;;;13.60;85.80;;;;;;5008975;28;20034;-88
2022/10/04 10:45:31;;;;;;;5.00;3.67;;;12.90;90.20;;;;;;4984015;28;20038;-87
2022/10/04 10:48:18;;;;;;;9.65;4.80;;;12.10;95.50;;;;;;5002290;28;20026;-88
2022/10/04 10:51:09;;;;;;;6.93;2.85;;;11.60;98.10;;;;;;4988295;28;20034;-87
2022/10/04 10:54:09;;;;;;;3.85;2.67;;;11.40;99.50;;;;;;5000531;28;20117;-88
2022/10/04 10:56:56;;;;;;;2.72;2.08;;;11.10;99.90;;;;;;4996191;28;20034;-88
2022/10/04 10:59:49;;;;;;;4.57;2.40;;;11.00;99.90;;;;;;4989894;28;20511;-86
2022/10/04 11:02:52;;;;;;;3.35;2.65;;;11.00;99.90;;;;;;5009311;28;20098;-88
2022/10/04 11:05:29;;;;;;;3.38;1.88;;;11.00;99.90;;;;;;5005787;28;20476;-88
2022/10/04 11:08:09;;;;;;;;;;;10.70;99.90;;;;;;4999319;28;20042;-88
2022/10/04 11:11:15;;;;;;;4.05;2.05;;;10.50;99.90;;;;;;4976948;28;19933;-88
2022/10/04 11:14:12;;;;;;;3.55;1.35;;;10.30;99.90;;;;;;5007325;28;20053;-88
2022/10/04 11:17:19;;;;;;;1.00;0.70;;;10.00;99.90;;;;;;5013553;28;20029;-86
2022/10/04 11:20:08;;;;;;;1.90;1.30;;;9.70;99.90;;;;;;4953612;28;20034;-90
2022/10/04 11:23:08;;;;;;;1.48;1.00;;;9.60;99.90;;;;;;4985852;28;20069;-88
2022/10/04 11:25:55;;;;;;;2.03;1.35;;;9.60;99.90;;;;;;4981499;28;20374;-88
2022/10/04 11:28:56;;;;;;;4.50;0.70;;;9.40;99.90;;;;;;4984087;28;20050;-89
2022/10/04 11:31:44;;;;;;;3.33;1.17;;;9.20;99.90;;;;;;5009649;28;20087;-88
2022/10/04 11:34:29;;;;;;;2.63;1.25;;;9.20;99.90;;;;;;5013720;28;20034;-89
2022/10/04 11:37:30;;;;;;;1.85;0.93;;;9.20;99.90;;;;;;5001605;28;20030;-87
2022/10/04 11:40:35;;;;;;;1.30;0.80;;;9.20;99.90;;;;;;5002096;28;20026;-87
2022/10/04 11:43:34;;;;;;;2.25;1.27;;;9.20;99.90;;;;;;4993128;28;20042;-89
2022/10/04 11:46:06;;;;;;;4.45;1.33;;;9.20;99.90;;;;;;4994015;28;20032;-86
2022/10/04 11:48:57;;;;;;;3.03;1.83;;;9.30;99.90;;;;;;5030443;28;20045;-88
2022/10/04 11:51:50;;;;;;;2.08;0.82;;;9.30;99.90;;;;;;5045405;28;20375;-89
2022/10/04 11:54:20;;;;;;;5.10;2.25;;;9.40;99.90;;;;;;5026735;28;20025;-90
2022/10/04 11:57:09;;;;;;;1.83;1.20;;;9.30;99.90;;;;;;5028592;28;20030;-89
2022/10/04 11:59:59;;;;;;;1.15;1.00;;;9.30;99.90;;;;;;5006931;28;20034;-87
2022/10/04 12:02:55;;;;;;;1.85;1.30;;;9.70;99.90;;;;;;5020517;28;20061;-88
2022/10/04 12:05:31;;;;;;;2.13;1.42;;;9.90;99.90;;;;;;5039820;28;20368;-88
2022/10/04 12:08:05;;;;;;;1.67;1.35;;;10.10;99.90;;;;;;5011801;28;20045;-87
2022/10/04 12:10:38;;;;;;;2.35;1.80;;;10.20;99.90;;;;;;5020426;28;20464;-89
2022/10/04 12:13:22;;;;;;;5.68;1.67;;;10.40;99.90;;;;;;5031706;28;20026;-88
2022/10/04 12:16:28;;;;;;;2.13;1.10;;;10.60;99.90;;;;;;5017631;28;20106;-90
2022/10/04 12:19:21;;;;;;;2.95;1.08;;;10.50;99.90;;;;;;5028785;28;20368;-87
2022/10/04 12:22:05;;;;;;;1.33;1.10;;;10.40;99.90;;;;;;5021245;28;20537;-88
2022/10/04 12:25:31;;;;;;;3.40;2.53;;;10.30;99.90;;;;;;5012736;28;20030;-87
2022/10/04 12:28:15;;;;;;;3.00;1.80;;;10.20;99.90;;;;;;4975109;28;20035;-88
2022/10/04 12:31:12;;;;;;;2.47;1.35;;;10.30;99.90;;;;;;4946487;29;20054;-90
2022/10/04 12:34:01;;;;;;;2.07;1.17;;;10.40;99.90;;;;;;4947678;29;20043;-88
2022/10/04 12:36:42;;;;;;;4.90;1.25;;;10.30;99.90;;;;;;4932948;29;20046;-90
2022/10/04 12:39:33;;;;;;;1.42;1.02;;;10.40;99.90;;;;;;4953349;29;20052;-89
2022/10/04 12:42:33;;;;;;;3.15;1.90;;;10.40;99.90;;;;;;4933145;29;20378;-88
2022/10/04 12:45:20;;;;;;;3.72;0.95;;;10.40;99.90;;;;;;4955140;29;20035;-88
2022/10/04 12:47:49;;;;;;;3.50;2.35;;;10.30;99.90;;;;;;4950434;29;20027;-89
2022/10/04 12:50:47;;;;;;;1.90;0.98;;;10.40;99.90;;;;;;4950855;28;20035;-88
2022/10/04 12:53:23;;;;;;;1.95;0.98;;;10.60;99.90;;;;;;4967966;28;20069;-89
2022/10/04 12:56:20;;;;;;;2.60;1.48;;;10.60;99.90;;;;;;4943272;29;20035;-87
2022/10/04 12:59:23;;;;;;;1.92;1.50;;;10.70;99.90;;;;;;4927350;29;20030;-88
2022/10/04 13:02:03;;;;;;;2.33;1.48;;;10.80;99.90;;;;;;4950148;28;20105;-88
2022/10/04 13:04:41;;;;;;;1.95;1.23;;;10.80;99.60;;;;;;5021807;28;20100;-89
2022/10/04 13:07:49;;;;;;;5.35;1.77;;;10.70;99.30;;;;;;5014717;28;20033;-89
2022/10/04 13:10:18;;;;;;;3.30;1.75;;;10.70;99.10;;;;;;4998180;28;20045;-87
2022/10/04 13:13:22;;;;;;;2.05;1.10;;;10.80;98.90;;;;;;5016692;28;20223;-88
2022/10/04 13:16:19;;;;;;;1.52;0.80;;;10.80;98.40;;;;;;5025448;28;20053;-87
2022/10/04 13:19:05;;;;;;;1.65;0.70;;;10.80;98.00;;;;;;4992654;28;20030;-89
2022/10/04 13:22:02;;;;;;;1.70;1.20;;;10.80;97.10;;;;;;4974877;28;20042;-88
2022/10/04 13:24:58;;;;;;;1.70;1.20;;;10.80;97.30;;;;;;5015122;28;20097;-88
2022/10/04 13:27:40;;;;;;;1.85;1.38;;;10.90;97.10;;;;;;5002360;28;20018;-86
2022/10/04 13:30:19;;;;;;;2.58;1.30;;;10.90;97.10;;;;;;5002501;28;20018;-88
2022/10/04 13:32:50;;;;;;;2.55;1.10;;;10.90;97.00;;;;;;5006076;28;20033;-87
2022/10/04 13:35:35;;;;;;;5.43;1.70;;;10.90;96.60;;;;;;5025327;28;20018;-87
2022/10/04 13:38:36;;;;;;;2.50;1.65;;;10.90;96.90;;;;;;4999952;28;20019;-88
2022/10/04 13:41:24;;;;;;;4.10;1.17;;;10.80;97.20;;;;;;5036655;28;20010;-87
2022/10/04 13:44:34;;;;;;;3.53;2.92;;;10.70;97.20;;;;;;5033575;28;20045;-89
2022/10/04 13:47:30;;;;;;;3.97;2.03;;;10.70;97.80;;;;;;4971601;28;20030;-88
2022/10/04 13:50:28;;;;;;;5.20;1.63;;;10.70;97.60;;;;;;5018457;28;20486;-89
2022/10/04 13:56:35;;;;;;;5.00;1.73;;;10.60;97.70;;;;;;5025988;28;20037;-88
2022/10/04 13:59:22;;;;;;;6.13;2.88;;;10.60;97.70;;;;;;5020357;28;20060;-88
2022/10/04 14:01:58;;;;;;;3.60;2.00;;;10.50;97.80;;;;;;5020339;28;20097;-89
2022/10/04 14:04:48;;;;;;;5.30;1.70;;;10.50;97.90;;;;;;5010728;28;20089;-90
2022/10/04 14:07:36;;;;;;;4.40;1.60;;;10.50;97.80;;;;;;5026792;28;20061;-89
2022/10/04 14:10:14;;;;;;;;;;;10.50;97.60;;;;;;5017456;28;20021;-87
2022/10/04 14:12:58;;;;;;;1.92;1.73;;;10.50;97.30;;;;;;5026377;28;19909;-90
2022/10/04 14:15:59;;;;;;;5.28;1.70;;;10.50;97.60;;;;;;5035283;28;20034;-88
2022/10/04 14:19:13;;;;;;;4.45;2.08;;;10.60;97.40;;;;;;5023659;28;20026;-88
2022/10/04 14:21:39;;;;;;;2.42;1.60;;;10.60;97.50;;;;;;4948415;29;20461;-91
2022/10/04 14:24:34;;;;;;;1.95;1.40;;;10.60;97.10;;;;;;4952473;28;20043;-88